createdAt,value
2019-05-17T00:00:51.775Z,27.8
2019-05-17T00:01:58.866Z,27.7
2019-05-17T00:03:01.286Z,27.7
2019-05-17T00:04:03.705Z,27.8
2019-05-17T00:05:09.644Z,27.9
2019-05-17T00:06:12.077Z,27.9
2019-05-17T00:07:16.551Z,27.9
2019-05-17T00:08:30.950Z,27.6
2019-05-17T00:09:24.146Z,27.8
2019-05-17T00:10:28.084Z,28
2019-05-17T00:11:30.512Z,28
2019-05-17T00:12:32.693Z,28.2
2019-05-17T00:13:39.119Z,27.8
2019-05-17T00:14:41.541Z,27.8
2019-05-17T00:15:43.985Z,27.6
2019-05-17T00:16:49.661Z,28
2019-05-17T00:17:52.028Z,27.8
2019-05-17T00:18:54.195Z,28
2019-05-17T00:19:59.390Z,27.7
2019-05-17T00:21:01.266Z,27.9
2019-05-17T00:22:03.697Z,28
2019-05-17T00:23:09.842Z,28
2019-05-17T00:24:11.968Z,27.8
2019-05-17T00:25:16.502Z,28
2019-05-17T00:26:19.066Z,27.9
2019-05-17T00:27:21.201Z,27.9
2019-05-17T00:28:23.075Z,28.1
2019-05-17T00:29:29.505Z,28
2019-05-17T00:30:31.932Z,28
2019-05-17T00:31:33.256Z,28
2019-05-17T00:32:37.915Z,28.2
2019-05-17T00:33:40.071Z,27.9
2019-05-17T00:34:42.214Z,28
2019-05-17T00:35:47.516Z,28
2019-05-17T00:36:49.944Z,27.9
2019-05-17T00:37:52.272Z,28.1
2019-05-17T00:38:56.638Z,27.8
2019-05-17T00:39:59.437Z,28.4
2019-05-17T00:41:01.866Z,28
2019-05-17T00:42:06.746Z,28.1
2019-05-17T00:43:09.278Z,27.9
2019-05-17T00:44:11.179Z,27.7
2019-05-17T00:45:13.619Z,28.1
2019-05-17T00:46:20.045Z,27.9
2019-05-17T00:47:22.471Z,28.1
2019-05-17T00:48:29.095Z,28.2
2019-05-17T00:49:31.269Z,28.1
2019-05-17T00:50:33.691Z,28
2019-05-17T00:51:39.633Z,27.9
2019-05-17T00:52:41.776Z,28
2019-05-17T00:53:44.207Z,27.9
2019-05-17T00:54:48.714Z,28.1
2019-05-17T00:55:51.151Z,28.3
2019-05-17T00:56:53.732Z,28
2019-05-17T00:57:59.196Z,28.2
2019-05-17T00:59:01.627Z,28.2
2019-05-17T01:00:04.055Z,28
2019-05-17T01:01:08.158Z,28.1
2019-05-17T01:02:10.856Z,28
2019-05-17T01:03:13.013Z,28.1
2019-05-17T01:04:18.955Z,28
2019-05-17T01:05:21.383Z,28.3
2019-05-17T01:06:23.804Z,28.1
2019-05-17T01:07:29.957Z,28.3
2019-05-17T01:08:32.374Z,28
2019-05-17T01:09:36.603Z,28.1
2019-05-17T01:10:39.169Z,28.2
2019-05-17T01:11:41.307Z,28
2019-05-17T01:12:43.736Z,28.2
2019-05-17T01:13:50.641Z,28.1
2019-05-17T01:14:52.784Z,28
2019-05-17T01:15:56.544Z,28
2019-05-17T01:16:59.097Z,27.9
2019-05-17T01:18:01.523Z,28.1
2019-05-17T01:19:03.945Z,28.1
2019-05-17T01:20:08.245Z,28.3
2019-05-17T01:21:10.405Z,28.1
2019-05-17T01:22:12.839Z,28.1
2019-05-17T01:23:19.491Z,28.3
2019-05-17T01:24:21.915Z,28
2019-05-17T01:25:24.347Z,28.2
2019-05-17T01:26:29.802Z,28.3
2019-05-17T01:27:32.238Z,28.3
2019-05-17T01:28:36.291Z,28.2
2019-05-17T01:29:38.863Z,28.3
2019-05-17T01:30:41.290Z,28.4
2019-05-17T01:31:43.727Z,28.2
2019-05-17T01:32:48.918Z,28.1
2019-05-17T01:33:50.779Z,28.1
2019-05-17T01:34:52.665Z,28.2
2019-05-17T01:35:59.076Z,27.9
2019-05-17T01:37:01.217Z,28.1
2019-05-17T01:38:03.663Z,28.1
2019-05-17T01:39:17.162Z,28.3
2019-05-17T01:40:14.593Z,28.3
2019-05-17T01:41:20.056Z,28.1
2019-05-17T01:42:22.482Z,28.2
2019-05-17T01:43:29.117Z,28.4
2019-05-17T01:44:31.255Z,28.2
2019-05-17T01:45:33.481Z,28.2
2019-05-17T01:46:38.987Z,28
2019-05-17T01:47:41.469Z,28.1
2019-05-17T01:48:43.624Z,28.1
2019-05-17T01:49:49.575Z,28.1
2019-05-17T01:50:51.723Z,28
2019-05-17T01:51:53.868Z,28.2
2019-05-17T01:52:59.533Z,28.3
2019-05-17T01:54:00.851Z,28.1
2019-05-17T01:55:02.992Z,28.2
2019-05-17T01:56:07.111Z,28.2
2019-05-17T01:57:09.537Z,28.3
2019-05-17T01:58:11.423Z,28.1
2019-05-17T01:59:13.847Z,28.2
2019-05-17T02:00:19.791Z,28.4
2019-05-17T02:01:22.226Z,28.1
2019-05-17T02:02:26.896Z,28.2
2019-05-17T02:03:29.632Z,28.4
2019-05-17T02:04:32.063Z,28.3
2019-05-17T02:05:36.895Z,28.3
2019-05-17T02:06:39.487Z,28.3
2019-05-17T02:07:41.413Z,28.3
2019-05-17T02:08:43.849Z,28.3
2019-05-17T02:09:49.783Z,28.2
2019-05-17T02:10:51.934Z,28.2
2019-05-17T02:11:54.085Z,28.1
2019-05-17T02:12:58.592Z,28.2
2019-05-17T02:14:00.739Z,28.1
2019-05-17T02:15:02.910Z,28.1
2019-05-17T02:16:09.574Z,28.2
2019-05-17T02:17:12.006Z,28.3
2019-05-17T02:18:14.164Z,28.4
2019-05-17T02:19:18.783Z,28.2
2019-05-17T02:20:21.205Z,28.1
2019-05-17T02:21:23.639Z,28.3
2019-05-17T02:22:30.071Z,28.4
2019-05-17T02:23:32.233Z,28.1
2019-05-17T02:24:36.879Z,28.2
2019-05-17T02:25:39.638Z,28.2
2019-05-17T02:26:42.077Z,28.3
2019-05-17T02:27:48.973Z,28.3
2019-05-17T02:28:54.915Z,28.1
2019-05-17T02:29:57.047Z,28.2
2019-05-17T02:30:59.206Z,28.3
2019-05-17T02:32:04.881Z,28.3
2019-05-17T02:33:07.344Z,28.2
2019-05-17T02:34:14.394Z,28.1
2019-05-17T02:35:16.546Z,28.3
2019-05-17T02:36:18.978Z,28.2
2019-05-17T02:37:24.439Z,28.3
2019-05-17T02:38:26.864Z,28
2019-05-17T02:39:32.476Z,28.5
2019-05-17T02:40:34.445Z,28.1
2019-05-17T02:41:36.916Z,28
2019-05-17T02:42:39.073Z,28.2
2019-05-17T02:43:44.060Z,28
2019-05-17T02:44:46.505Z,28.1
2019-05-17T02:45:48.937Z,28.3
2019-05-17T02:46:54.399Z,28.1
2019-05-17T02:47:56.826Z,28.1
2019-05-17T02:48:59.000Z,28.3
2019-05-17T02:50:05.388Z,28.4
2019-05-17T02:51:08.259Z,28.2
2019-05-17T02:52:14.411Z,28.3
2019-05-17T02:53:16.850Z,28.3
2019-05-17T02:54:19.294Z,28.3
2019-05-17T02:55:25.245Z,28.2
2019-05-17T02:56:27.673Z,28.3
2019-05-17T02:57:34.763Z,28.1
2019-05-17T02:58:37.322Z,28
2019-05-17T02:59:39.471Z,28.1
2019-05-17T03:00:44.932Z,28.2
2019-05-17T03:01:47.070Z,28.3
2019-05-17T03:02:49.493Z,28.2
2019-05-17T03:03:54.951Z,28.2
2019-05-17T03:04:57.375Z,28.1
2019-05-17T03:06:02.625Z,28.1
2019-05-17T03:07:04.538Z,28.2
2019-05-17T03:08:06.966Z,28.1
2019-05-17T03:09:12.257Z,28
2019-05-17T03:10:23.501Z,28
2019-05-17T03:11:22.349Z,28.2
2019-05-17T03:12:24.345Z,27.6
2019-05-17T03:13:26.768Z,28
2019-05-17T03:14:32.508Z,27.9
2019-05-17T03:15:34.170Z,27.8
2019-05-17T03:16:36.593Z,27.9
2019-05-17T03:17:38.757Z,27.7
2019-05-17T03:18:44.218Z,27.8
2019-05-17T03:19:46.662Z,28
2019-05-17T03:20:52.252Z,27.9
2019-05-17T03:21:54.078Z,28.4
2019-05-17T03:22:56.511Z,27.8
2019-05-17T03:23:58.951Z,27.8
2019-05-17T03:25:04.449Z,27.7
2019-05-17T03:26:06.616Z,27.8
2019-05-17T03:27:08.502Z,27.7
2019-05-17T03:28:14.375Z,27.3
2019-05-17T03:29:16.533Z,27.7
2019-05-17T03:30:20.763Z,27.6
2019-05-17T03:31:26.165Z,27.6
2019-05-17T03:32:28.935Z,27.9
2019-05-17T03:33:36.210Z,27.6
2019-05-17T03:34:39.169Z,27.5
2019-05-17T03:35:45.991Z,27.4
2019-05-17T03:36:48.693Z,27.4
2019-05-17T03:37:54.586Z,27.8
2019-05-17T03:38:57.041Z,27.4
2019-05-17T03:40:02.685Z,27.9
2019-05-17T03:41:16.933Z,27.1
2019-05-17T03:42:09.433Z,28
2019-05-17T03:43:14.897Z,27.9
2019-05-17T03:44:17.059Z,27.3
2019-05-17T03:45:22.562Z,27.4
2019-05-17T03:46:24.467Z,27.4
2019-05-17T03:47:26.346Z,27.5
2019-05-17T03:48:28.786Z,27.3
2019-05-17T03:49:36.785Z,28
2019-05-17T03:50:39.706Z,27.7
2019-05-17T03:51:45.387Z,27.3
2019-05-17T03:52:48.037Z,27.3
2019-05-17T03:53:54.937Z,27.4
2019-05-17T03:54:57.072Z,27.5
2019-05-17T03:56:02.636Z,27.4
2019-05-17T03:57:04.226Z,27.4
2019-05-17T03:58:06.663Z,27.4
2019-05-17T03:59:09.129Z,27.3
2019-05-17T04:00:14.592Z,27.3
2019-05-17T04:01:17.018Z,28
2019-05-17T04:02:19.182Z,27.5
2019-05-17T04:03:24.639Z,27.5
2019-05-17T04:04:27.078Z,27.1
2019-05-17T04:05:29.227Z,26.9
2019-05-17T04:06:34.684Z,27.4
2019-05-17T04:07:37.105Z,27.7
2019-05-17T04:08:42.229Z,27.1
2019-05-17T04:09:44.532Z,27.4
2019-05-17T04:10:46.974Z,27.1
2019-05-17T04:11:49.316Z,27.1
2019-05-17T04:14:02.581Z,27.8
2019-05-17T04:15:04.478Z,27.3
2019-05-17T04:16:09.074Z,27.4
2019-05-17T04:17:13.047Z,27
2019-05-17T04:18:15.747Z,27.7
2019-05-17T04:19:17.894Z,27.3
2019-05-17T04:20:24.346Z,27.2
2019-05-17T04:21:26.215Z,27.3
2019-05-17T04:22:28.109Z,27.5
2019-05-17T04:23:34.526Z,27.3
2019-05-17T04:24:36.674Z,27.7
2019-05-17T04:25:39.087Z,27.8
2019-05-17T04:26:45.056Z,27.3
2019-05-17T04:27:47.483Z,27
2019-05-17T04:28:52.936Z,27.4
2019-05-17T04:29:54.641Z,27.3
2019-05-17T04:30:56.777Z,27.4
2019-05-17T04:31:59.204Z,27.1
2019-05-17T04:33:04.879Z,27.4
2019-05-17T04:34:07.306Z,27.6
2019-05-17T04:35:12.546Z,27.3
2019-05-17T04:36:14.723Z,27.4
2019-05-17T04:37:17.530Z,27.4
2019-05-17T04:38:24.439Z,27.7
2019-05-17T04:39:26.857Z,27.4
2019-05-17T04:40:29.025Z,27.6
2019-05-17T04:41:44.846Z,27.3
2019-05-17T04:42:43.487Z,27.4
2019-05-17T04:43:45.145Z,27.4
2019-05-17T04:44:47.957Z,27.1
2019-05-17T04:45:54.372Z,27.4
2019-05-17T04:46:56.246Z,27.2
2019-05-17T04:47:58.398Z,27.5
2019-05-17T04:49:05.188Z,26.9
2019-05-17T04:50:07.073Z,27.6
2019-05-17T04:51:12.825Z,27
2019-05-17T04:52:14.498Z,27.2
2019-05-17T04:53:16.930Z,27
2019-05-17T04:54:22.490Z,27.4
2019-05-17T04:55:24.322Z,27.4
2019-05-17T04:56:26.229Z,27.2
2019-05-17T04:57:28.378Z,27.3
2019-05-17T04:58:34.322Z,27
2019-05-17T04:59:36.475Z,27.3
2019-05-17T05:00:38.380Z,27
2019-05-17T05:01:44.329Z,27.4
2019-05-17T05:02:46.494Z,27.2
2019-05-17T05:03:48.666Z,27.7
2019-05-17T05:04:54.143Z,26.8
2019-05-17T05:05:56.605Z,27.2
2019-05-17T05:06:59.056Z,27
2019-05-17T05:08:04.994Z,27.4
2019-05-17T05:09:07.580Z,27.1
2019-05-17T05:10:14.470Z,27
2019-05-17T05:11:16.975Z,27.3
2019-05-17T05:12:19.408Z,27.2
2019-05-17T05:13:24.885Z,27.5
2019-05-17T05:14:27.306Z,27.1
2019-05-17T05:15:32.194Z,27
2019-05-17T05:16:34.708Z,27.2
2019-05-17T05:17:37.135Z,27.5
2019-05-17T05:18:41.919Z,27
2019-05-17T05:19:44.273Z,27.2
2019-05-17T05:20:46.704Z,27
2019-05-17T05:21:51.887Z,27.7
2019-05-17T05:22:53.292Z,27.3
2019-05-17T05:23:55.439Z,27.1
2019-05-17T05:24:57.634Z,27.3
2019-05-17T05:26:04.515Z,27.3
2019-05-17T05:27:06.410Z,27.2
2019-05-17T05:28:08.856Z,27.4
2019-05-17T05:29:13.148Z,27.2
2019-05-17T05:30:15.572Z,27.3
2019-05-17T05:31:17.996Z,27.4
2019-05-17T05:32:22.032Z,27
2019-05-17T05:33:24.545Z,27.3
2019-05-17T05:34:26.965Z,27.4
2019-05-17T05:35:29.142Z,27.2
2019-05-17T05:36:33.467Z,27.3
2019-05-17T05:37:36.104Z,27.2
2019-05-17T05:38:38.262Z,27.4
2019-05-17T05:39:42.708Z,27.3
2019-05-17T05:40:44.869Z,27
2019-05-17T05:41:47.300Z,26.9
2019-05-17T05:42:51.472Z,27.4
2019-05-17T05:43:54.164Z,27.2
2019-05-17T05:44:56.034Z,26.9
2019-05-17T05:45:58.461Z,27.3
2019-05-17T05:47:05.101Z,26.7
2019-05-17T05:48:07.565Z,27.2
2019-05-17T05:49:09.006Z,27.4
2019-05-17T05:50:17.518Z,27.1
2019-05-17T05:51:21.592Z,27.2
2019-05-17T05:52:23.924Z,27.5
2019-05-17T05:53:26.101Z,27.1
2019-05-17T05:54:28.278Z,26.8
2019-05-17T05:55:34.444Z,26.9
2019-05-17T05:56:36.303Z,27.4
2019-05-17T05:57:38.471Z,27
2019-05-17T05:58:44.404Z,27
2019-05-17T05:59:45.994Z,27.3
2019-05-17T06:00:48.437Z,27.2
2019-05-17T06:01:55.334Z,27.5
2019-05-17T06:02:57.767Z,26.8
2019-05-17T06:03:59.944Z,27.1
2019-05-17T06:05:04.626Z,27.2
2019-05-17T06:06:07.037Z,27.1
2019-05-17T06:07:09.463Z,26.9
2019-05-17T06:08:15.337Z,27
2019-05-17T06:09:17.238Z,27
2019-05-17T06:10:19.105Z,27.1
2019-05-17T06:11:23.763Z,27.4
2019-05-17T06:12:28.069Z,26.9
2019-05-17T06:13:32.512Z,27.6
2019-05-17T06:14:34.547Z,27.1
2019-05-17T06:15:36.707Z,27.2
2019-05-17T06:16:39.143Z,27
2019-05-17T06:17:45.088Z,27.2
2019-05-17T06:18:48.445Z,26.9
2019-05-17T06:19:52.822Z,26.7
2019-05-17T06:20:55.257Z,27.3
2019-05-17T06:21:57.905Z,27
2019-05-17T06:23:02.391Z,27.1
2019-05-17T06:24:04.939Z,27
2019-05-17T06:25:07.375Z,27.1
2019-05-17T06:26:12.139Z,26.7
2019-05-17T06:27:14.514Z,26.7
2019-05-17T06:28:16.946Z,27
2019-05-17T06:29:19.123Z,27
2019-05-17T06:30:24.808Z,26.9
2019-05-17T06:31:26.986Z,27.2
2019-05-17T06:32:31.609Z,26.9
2019-05-17T06:33:34.995Z,26.9
2019-05-17T06:34:37.274Z,27.2
2019-05-17T06:35:42.029Z,27
2019-05-17T06:36:44.691Z,27.4
2019-05-17T06:37:46.866Z,27.3
2019-05-17T06:38:49.033Z,26.6
2019-05-17T06:39:55.185Z,27.1
2019-05-17T06:40:57.615Z,26.8
2019-05-17T06:42:04.035Z,26.9
2019-05-17T06:43:05.905Z,26.8
2019-05-17T06:44:08.075Z,27.1
2019-05-17T06:45:14.496Z,26.8
2019-05-17T06:46:16.624Z,27.4
2019-05-17T06:47:18.991Z,27.1
2019-05-17T06:48:25.135Z,27.4
2019-05-17T06:49:27.265Z,27.1
2019-05-17T06:50:29.417Z,27
2019-05-17T06:51:35.356Z,27.1
2019-05-17T06:52:37.515Z,27.4
2019-05-17T06:53:39.701Z,27.3
2019-05-17T06:54:46.124Z,27.5
2019-05-17T06:55:48.568Z,26.9
2019-05-17T06:56:52.492Z,27
2019-05-17T06:57:54.591Z,27.3
2019-05-17T06:58:57.028Z,27.3
2019-05-17T07:00:02.410Z,27.2
2019-05-17T07:01:04.458Z,27.9
2019-05-17T07:02:06.595Z,27.1
2019-05-17T07:03:13.015Z,27.1
2019-05-17T07:04:15.455Z,27.1
2019-05-17T07:05:21.884Z,27.1
2019-05-17T07:06:24.045Z,27.3
2019-05-17T07:07:26.484Z,27.2
2019-05-17T07:08:32.659Z,27.1
2019-05-17T07:09:36.069Z,27.3
2019-05-17T07:10:42.568Z,27.2
2019-05-17T07:11:44.713Z,27
2019-05-17T07:12:55.717Z,27.2
2019-05-17T07:13:52.136Z,27.1
2019-05-17T07:14:54.262Z,26.9
2019-05-17T07:16:00.214Z,26.9
2019-05-17T07:17:02.664Z,26.8
2019-05-17T07:18:04.564Z,27
2019-05-17T07:19:06.983Z,27.1
2019-05-17T07:20:12.652Z,27.4
2019-05-17T07:21:15.083Z,26.8
2019-05-17T07:22:17.265Z,26.9
2019-05-17T07:23:23.697Z,27.4
2019-05-17T07:24:26.137Z,27.3
2019-05-17T07:25:32.562Z,27.1
2019-05-17T07:26:34.710Z,27.4
2019-05-17T07:27:41.218Z,26.8
2019-05-17T07:28:41.591Z,27.2
2019-05-17T07:29:44.032Z,27
2019-05-17T07:30:46.211Z,27.1
2019-05-17T07:31:52.836Z,26.9
2019-05-17T07:32:55.006Z,27.3
2019-05-17T07:33:57.165Z,27
2019-05-17T07:35:01.767Z,26.8
2019-05-17T07:36:04.314Z,27.3
2019-05-17T07:37:06.735Z,27.1
2019-05-17T07:38:12.682Z,27.4
2019-05-17T07:39:14.567Z,27.3
2019-05-17T07:40:17.008Z,27.1
2019-05-17T07:41:22.465Z,27.2
2019-05-17T07:42:24.345Z,27.1
2019-05-17T07:43:26.777Z,27
2019-05-17T07:44:32.244Z,26.9
2019-05-17T07:45:35.280Z,26.6
2019-05-17T07:46:37.454Z,26.9
2019-05-17T07:47:42.062Z,27.1
2019-05-17T07:48:44.234Z,27
2019-05-17T07:49:46.664Z,26.7
2019-05-17T07:50:52.135Z,27.6
2019-05-17T07:51:54.559Z,27
2019-05-17T07:52:56.994Z,27.5
2019-05-17T07:54:01.576Z,26.9
2019-05-17T07:55:04.026Z,27.1
2019-05-17T07:56:06.217Z,27.3
2019-05-17T07:57:12.839Z,27.1
2019-05-17T07:58:15.276Z,27.6
2019-05-17T07:59:19.841Z,27.2
2019-05-17T08:00:22.454Z,27.4
2019-05-17T08:01:24.665Z,27.2
2019-05-17T08:02:27.113Z,27.4
2019-05-17T08:03:33.054Z,27
2019-05-17T08:04:35.504Z,27
2019-05-17T08:05:40.231Z,26.9
2019-05-17T08:06:42.943Z,27.1
2019-05-17T08:07:45.368Z,27
2019-05-17T08:08:50.088Z,26.9
2019-05-17T08:09:52.805Z,26.9
2019-05-17T08:10:54.934Z,27.1
2019-05-17T08:11:59.565Z,26.8
2019-05-17T08:13:02.364Z,27.2
2019-05-17T08:14:04.806Z,26.8
2019-05-17T08:15:07.236Z,26.8
2019-05-17T08:16:13.180Z,26.9
2019-05-17T08:17:15.347Z,27.3
2019-05-17T08:18:22.269Z,26.9
2019-05-17T08:19:24.680Z,26.9
2019-05-17T08:20:27.226Z,27.1
2019-05-17T08:21:31.580Z,26.9
2019-05-17T08:22:34.004Z,26.9
2019-05-17T08:23:36.436Z,27.1
2019-05-17T08:24:42.302Z,26.9
2019-05-17T08:25:52.567Z,27.1
2019-05-17T08:26:50.198Z,26.8
2019-05-17T08:27:52.454Z,27.4
2019-05-17T08:28:54.907Z,27
2019-05-17T08:29:59.323Z,27.1
2019-05-17T08:31:02.046Z,27.2
2019-05-17T08:32:04.487Z,27.1
2019-05-17T08:33:06.376Z,26.9
2019-05-17T08:34:12.805Z,27.1
2019-05-17T08:35:15.848Z,27.2
2019-05-17T08:36:22.298Z,26.7
2019-05-17T08:37:24.737Z,26.7
2019-05-17T08:38:27.162Z,27.5
2019-05-17T08:39:33.104Z,26.7
2019-05-17T08:40:35.537Z,27.3
2019-05-17T08:41:42.436Z,27
2019-05-17T08:42:44.594Z,27.1
2019-05-17T08:43:47.230Z,27
2019-05-17T08:44:53.408Z,27.1
2019-05-17T08:45:55.025Z,27
2019-05-17T08:47:00.486Z,27.2
2019-05-17T08:48:02.975Z,27
2019-05-17T08:49:05.437Z,27.2
2019-05-17T08:50:11.166Z,27.2
2019-05-17T08:51:13.703Z,27
2019-05-17T08:52:15.914Z,26.8
2019-05-17T08:53:20.477Z,27.1
2019-05-17T08:54:22.927Z,26.9
2019-05-17T08:55:25.080Z,27
2019-05-17T08:56:32.191Z,27.4
2019-05-17T08:57:33.804Z,26.9
2019-05-17T08:58:36.223Z,26.7
2019-05-17T08:59:42.865Z,27.1
2019-05-17T09:00:45.314Z,26.6
2019-05-17T09:01:50.111Z,27
2019-05-17T09:02:52.730Z,26.9
2019-05-17T09:03:54.888Z,27.1
2019-05-17T09:04:57.508Z,26.7
2019-05-17T09:06:03.067Z,27.1
2019-05-17T09:07:05.547Z,27.3
2019-05-17T09:08:11.995Z,27
2019-05-17T09:09:14.166Z,26.7
2019-05-17T09:10:16.306Z,26.9
2019-05-17T09:11:22.935Z,26.8
2019-05-17T09:12:25.092Z,27.2
2019-05-17T09:13:29.447Z,26.9
2019-05-17T09:14:32.416Z,27
2019-05-17T09:15:34.846Z,26.8
2019-05-17T09:16:37.005Z,27
2019-05-17T09:17:42.476Z,26.9
2019-05-17T09:18:44.653Z,26.7
2019-05-17T09:19:46.803Z,27.3
2019-05-17T09:20:52.983Z,26.6
2019-05-17T09:21:55.522Z,27.1
2019-05-17T09:23:02.456Z,26.8
2019-05-17T09:24:04.896Z,26.7
2019-05-17T09:25:06.797Z,26.9
2019-05-17T09:26:12.748Z,26.9
2019-05-17T09:27:15.216Z,27.1
2019-05-17T09:28:22.115Z,26.5
2019-05-17T09:29:24.543Z,27.3
2019-05-17T09:30:26.433Z,26.8
2019-05-17T09:31:33.315Z,27.2
2019-05-17T09:32:35.755Z,26.9
2019-05-17T09:33:40.412Z,27.2
2019-05-17T09:34:42.899Z,27
2019-05-17T09:35:45.062Z,26.7
2019-05-17T09:36:49.572Z,26.8
2019-05-17T09:37:52.193Z,27.1
2019-05-17T09:38:54.632Z,27.2
2019-05-17T09:39:57.076Z,27.1
2019-05-17T09:41:02.534Z,27.1
2019-05-17T09:42:04.986Z,26.8
2019-05-17T09:43:09.846Z,27.2
2019-05-17T09:44:16.055Z,26.9
2019-05-17T09:45:19.925Z,27.1
2019-05-17T09:46:22.366Z,26.8
2019-05-17T09:47:24.786Z,27.5
2019-05-17T09:48:27.220Z,27
2019-05-17T09:49:32.676Z,27.1
2019-05-17T09:50:35.112Z,27.2
2019-05-17T09:51:42.016Z,26.9
2019-05-17T09:52:44.164Z,27
2019-05-17T09:53:46.323Z,26.8
2019-05-17T09:54:51.785Z,27.1
2019-05-17T09:55:54.216Z,27
2019-05-17T09:56:56.654Z,27
2019-05-17T09:58:03.084Z,27
2019-05-17T09:59:05.526Z,26.7
2019-05-17T10:00:12.426Z,27.2
2019-05-17T10:01:14.870Z,27.2
2019-05-17T10:02:17.022Z,27.1
2019-05-17T10:03:23.989Z,26.7
2019-05-17T10:04:26.607Z,26.9
2019-05-17T10:05:31.276Z,26.8
2019-05-17T10:06:34.188Z,27.3
2019-05-17T10:07:36.064Z,26.8
2019-05-17T10:08:42.488Z,27.2
2019-05-17T10:09:44.904Z,27
2019-05-17T10:11:00.784Z,26.9
2019-05-17T10:11:52.044Z,27.2
2019-05-17T10:12:54.464Z,27.3
2019-05-17T10:13:58.876Z,27.3
2019-05-17T10:15:01.578Z,27
2019-05-17T10:16:03.744Z,27.4
2019-05-17T10:17:05.924Z,27
2019-05-17T10:18:12.342Z,27.1
2019-05-17T10:19:14.484Z,27.5
2019-05-17T10:20:16.626Z,26.9
2019-05-17T10:21:22.574Z,27.1
2019-05-17T10:22:29.953Z,27
2019-05-17T10:23:33.015Z,26.9
2019-05-17T10:24:38.785Z,27.3
2019-05-17T10:25:40.482Z,27.3
2019-05-17T10:26:42.946Z,26.8
2019-05-17T10:27:45.094Z,27.2
2019-05-17T10:28:46.968Z,27.1
2019-05-17T10:29:53.867Z,27.1
2019-05-17T10:30:56.300Z,26.8
2019-05-17T10:32:02.950Z,27.1
2019-05-17T10:33:05.396Z,27.6
2019-05-17T10:34:11.828Z,27.3
2019-05-17T10:35:13.982Z,27.1
2019-05-17T10:36:16.400Z,27.4
2019-05-17T10:37:22.344Z,27.1
2019-05-17T10:38:24.506Z,27
2019-05-17T10:39:26.935Z,26.7
2019-05-17T10:40:32.392Z,26.8
2019-05-17T10:41:34.826Z,26.9
2019-05-17T10:42:39.338Z,27.1
2019-05-17T10:43:41.716Z,27.3
2019-05-17T10:44:47.524Z,27.3
2019-05-17T10:45:49.128Z,27
2019-05-17T10:46:51.251Z,27.7
2019-05-17T10:47:53.688Z,27.2
2019-05-17T10:48:55.290Z,27.4
2019-05-17T10:49:57.452Z,27.3
2019-05-17T10:51:00.434Z,27.3
2019-05-17T10:52:02.938Z,27.2
2019-05-17T10:53:05.092Z,27.5
2019-05-17T10:54:11.998Z,27.3
2019-05-17T10:55:14.423Z,27.4
2019-05-17T10:56:16.564Z,26.9
2019-05-17T10:57:22.034Z,27.1
2019-05-17T10:58:24.455Z,27
2019-05-17T10:59:26.889Z,27.1
2019-05-17T11:00:30.276Z,27.3
2019-05-17T11:01:32.551Z,27.1
2019-05-17T11:02:34.417Z,27.4
2019-05-17T11:03:36.842Z,27.5
2019-05-17T11:04:42.300Z,27.1
2019-05-17T11:05:44.733Z,27.2
2019-05-17T11:06:47.159Z,26.8
2019-05-17T11:07:52.625Z,27
2019-05-17T11:08:55.067Z,27.1
2019-05-17T11:10:02.006Z,26.9
2019-05-17T11:11:05.067Z,26.8
2019-05-17T11:12:12.533Z,27.1
2019-05-17T11:13:15.740Z,27.3
2019-05-17T11:14:18.266Z,27.2
2019-05-17T11:15:20.692Z,27.2
2019-05-17T11:16:23.126Z,27.4
2019-05-17T11:17:25.556Z,27.3
2019-05-17T11:18:27.997Z,27.1
2019-05-17T11:19:30.352Z,27.5
2019-05-17T11:20:32.522Z,26.9
2019-05-17T11:21:34.943Z,27
2019-05-17T11:22:37.382Z,27.5
2019-05-17T11:23:40.640Z,27.6
2019-05-17T11:24:43.934Z,27
2019-05-17T11:25:46.751Z,26.8
2019-05-17T11:26:49.288Z,26.8
2019-05-17T11:27:51.442Z,26.7
2019-05-17T11:28:53.986Z,26.8
2019-05-17T11:29:56.411Z,27.2
2019-05-17T11:30:58.843Z,27.2
2019-05-17T11:32:00.732Z,27.1
2019-05-17T11:33:03.171Z,26.9
2019-05-17T11:34:05.329Z,27.3
2019-05-17T11:35:07.503Z,27
2019-05-17T11:36:09.986Z,27.3
2019-05-17T11:37:12.137Z,27
2019-05-17T11:38:14.701Z,27
2019-05-17T11:39:16.870Z,27.1
2019-05-17T11:40:19.038Z,27.1
2019-05-17T11:41:22.077Z,26.9
2019-05-17T11:42:24.269Z,27.3
2019-05-17T11:43:26.695Z,27.1
2019-05-17T11:44:28.859Z,27.4
2019-05-17T11:45:32.699Z,27
2019-05-17T11:46:36.639Z,27.3
2019-05-17T11:47:39.100Z,27.2
2019-05-17T11:48:41.740Z,27
2019-05-17T11:49:43.875Z,27.1
2019-05-17T11:50:46.702Z,27.1
2019-05-17T11:51:49.136Z,27
2019-05-17T11:52:50.994Z,27.3
2019-05-17T11:53:53.145Z,27
2019-05-17T11:54:55.320Z,27.3
2019-05-17T11:55:57.515Z,27.3
2019-05-17T11:56:59.653Z,27.4
2019-05-17T11:58:02.117Z,27.1
2019-05-17T11:59:04.240Z,27.1
2019-05-17T12:00:06.679Z,26.6
2019-05-17T12:01:09.124Z,27
2019-05-17T12:02:11.301Z,26.9
2019-05-17T12:03:13.806Z,27.3
2019-05-17T12:04:16.241Z,27.2
2019-05-17T12:05:18.665Z,26.8
2019-05-17T12:06:21.130Z,27.2
2019-05-17T12:07:23.328Z,26.9
2019-05-17T12:08:25.745Z,26.9
2019-05-17T12:09:36.738Z,27
2019-05-17T12:10:33.209Z,27
2019-05-17T12:11:35.485Z,26.9
2019-05-17T12:12:37.661Z,27.1
2019-05-17T12:13:43.277Z,27.4
2019-05-17T12:14:45.056Z,27
2019-05-17T12:15:47.225Z,27.2
2019-05-17T12:16:49.658Z,27.4
2019-05-17T12:17:52.081Z,27.1
2019-05-17T12:18:53.945Z,26.6
2019-05-17T12:19:56.096Z,26.7
2019-05-17T12:20:58.293Z,27.1
2019-05-17T12:22:01.339Z,27.3
2019-05-17T12:23:03.774Z,27
2019-05-17T12:24:06.100Z,27.1
2019-05-17T12:25:08.256Z,27
2019-05-17T12:26:10.684Z,26.9
2019-05-17T12:27:13.113Z,26.9
2019-05-17T12:28:15.537Z,26.8
2019-05-17T12:29:18.163Z,27.1
2019-05-17T12:31:51.923Z,27.1
2019-05-17T12:32:55.048Z,27.2
2019-05-17T12:33:57.473Z,27.2
2019-05-17T12:34:59.333Z,26.8
2019-05-17T12:36:01.866Z,27.6
2019-05-17T12:37:04.336Z,27.1
2019-05-17T12:38:06.767Z,27
2019-05-17T12:39:08.895Z,27
2019-05-17T12:40:11.045Z,27
2019-05-17T12:41:13.427Z,27
2019-05-17T12:42:15.562Z,27.2
2019-05-17T12:43:18.010Z,27.6
2019-05-17T12:44:20.657Z,26.8
2019-05-17T12:45:23.366Z,27.3
2019-05-17T12:46:25.996Z,27.2
2019-05-17T12:47:28.421Z,27.1
2019-05-17T12:48:30.842Z,27.3
2019-05-17T12:49:32.998Z,26.9
2019-05-17T12:50:35.639Z,27
2019-05-17T12:51:38.050Z,27.5
2019-05-17T12:52:40.198Z,27
2019-05-17T12:53:42.621Z,26.6
2019-05-17T12:54:44.516Z,27.3
2019-05-17T12:55:46.947Z,27
2019-05-17T12:56:49.128Z,27.1
2019-05-17T12:57:51.565Z,27
2019-05-17T12:58:53.992Z,27.2
2019-05-17T12:59:56.150Z,27.1
2019-05-17T13:00:59.224Z,27
2019-05-17T13:02:01.359Z,27.4
2019-05-17T13:03:03.992Z,27.2
2019-05-17T13:04:06.175Z,27
2019-05-17T13:05:08.623Z,26.7
2019-05-17T13:06:10.496Z,27.2
2019-05-17T13:07:12.931Z,27.2
2019-05-17T13:08:15.079Z,27
2019-05-17T13:09:17.502Z,26.8
2019-05-17T13:10:19.666Z,27.1
2019-05-17T13:11:22.501Z,27.5
2019-05-17T13:12:25.170Z,26.7
2019-05-17T13:13:27.496Z,27.2
2019-05-17T13:14:29.957Z,27.5
2019-05-17T13:15:32.385Z,27.4
2019-05-17T13:16:35.412Z,27.4
2019-05-17T13:17:37.576Z,27.1
2019-05-17T13:18:39.719Z,27
2019-05-17T13:19:41.865Z,26.9
2019-05-17T13:20:44.311Z,27.1
2019-05-17T13:21:46.745Z,26.7
2019-05-17T13:22:49.166Z,27.3
2019-05-17T13:23:51.335Z,26.9
2019-05-17T13:24:53.787Z,27
2019-05-17T13:25:56.784Z,27
2019-05-17T13:26:58.950Z,27
2019-05-17T13:28:01.374Z,27
2019-05-17T13:29:04.733Z,27.1
2019-05-17T13:30:06.889Z,27.2
2019-05-17T13:31:09.045Z,27
2019-05-17T13:32:11.738Z,27.5
2019-05-17T13:33:13.873Z,27.3
2019-05-17T13:34:16.326Z,26.7
2019-05-17T13:35:18.489Z,27.3
2019-05-17T13:36:20.904Z,27.5
2019-05-17T13:37:23.081Z,27.3
2019-05-17T13:38:24.955Z,27.5
2019-05-17T13:39:27.392Z,27.2
2019-05-17T13:40:38.670Z,26.9
2019-05-17T13:41:34.745Z,27
2019-05-17T13:42:37.316Z,26.9
2019-05-17T13:43:39.815Z,27.1
2019-05-17T13:44:42.675Z,26.9
2019-05-17T13:45:45.225Z,26.9
2019-05-17T13:46:48.585Z,27.3
2019-05-17T13:47:51.051Z,27.1
2019-05-17T13:48:53.224Z,26.9
2019-05-17T13:49:55.655Z,27.4
2019-05-17T13:50:58.086Z,27.1
2019-05-17T13:52:00.218Z,27.2
2019-05-17T13:53:03.121Z,27.3
2019-05-17T13:54:05.285Z,27
2019-05-17T13:55:07.979Z,26.8
2019-05-17T13:56:10.403Z,27.1
2019-05-17T13:57:12.834Z,27.2
2019-05-17T13:58:15.044Z,27.1
2019-05-17T13:59:16.905Z,26.8
2019-05-17T14:00:19.335Z,26.8
2019-05-17T14:01:21.501Z,27.3
2019-05-17T14:02:23.730Z,27.4
2019-05-17T14:03:26.177Z,27.7
2019-05-17T14:04:28.696Z,26.9
2019-05-17T14:05:30.876Z,26.9
2019-05-17T14:06:33.305Z,27.2
2019-05-17T14:07:35.740Z,27.5
2019-05-17T14:08:38.185Z,27.4
2019-05-17T14:09:40.613Z,27.3
2019-05-17T14:10:42.486Z,27
2019-05-17T14:11:45.772Z,26.9
2019-05-17T14:12:47.923Z,27.2
2019-05-17T14:13:50.534Z,27
2019-05-17T14:14:53.393Z,27.2